sensor_id;sensor_type;location;lat;lon;timestamp;temperature;humidity
19403;DHT22;9837;48.888;8.998;2024-02-26T00:02:17;12.10;55.60
19403;DHT22;9837;48.888;8.998;2024-02-26T00:04:43;12.00;55.60
19403;DHT22;9837;48.888;8.998;2024-02-26T00:07:08;12.00;55.50
19403;DHT22;9837;48.888;8.998;2024-02-26T00:09:34;11.90;55.20
19403;DHT22;9837;48.888;8.998;2024-02-26T00:12:03;11.80;55.20
19403;DHT22;9837;48.888;8.998;2024-02-26T00:14:31;11.60;55.40
19403;DHT22;9837;48.888;8.998;2024-02-26T00:16:57;11.40;55.80
19403;DHT22;9837;48.888;8.998;2024-02-26T00:19:22;11.40;56.00
19403;DHT22;9837;48.888;8.998;2024-02-26T00:21:48;11.40;56.50
19403;DHT22;9837;48.888;8.998;2024-02-26T00:24:13;11.80;55.10
19403;DHT22;9837;48.888;8.998;2024-02-26T00:26:39;12.00;54.70
19403;DHT22;9837;48.888;8.998;2024-02-26T00:31:31;12.20;54.30
19403;DHT22;9837;48.888;8.998;2024-02-26T00:33:56;12.30;54.20
19403;DHT22;9837;48.888;8.998;2024-02-26T00:36:22;12.30;54.20
19403;DHT22;9837;48.888;8.998;2024-02-26T00:38:47;12.40;54.20
19403;DHT22;9837;48.888;8.998;2024-02-26T00:41:20;12.40;54.20
19403;DHT22;9837;48.888;8.998;2024-02-26T00:43:46;12.50;54.10
19403;DHT22;9837;48.888;8.998;2024-02-26T00:46:11;12.50;54.00
19403;DHT22;9837;48.888;8.998;2024-02-26T00:48:37;12.40;53.60
19403;DHT22;9837;48.888;8.998;2024-02-26T00:51:03;12.40;53.50
19403;DHT22;9837;48.888;8.998;2024-02-26T00:53:33;12.30;53.50
19403;DHT22;9837;48.888;8.998;2024-02-26T00:55:58;12.20;53.70
19403;DHT22;9837;48.888;8.998;2024-02-26T00:58:24;12.30;53.40
19403;DHT22;9837;48.888;8.998;2024-02-26T01:00:50;12.30;54.10
19403;DHT22;9837;48.888;8.998;2024-02-26T01:03:17;12.50;53.40
19403;DHT22;9837;48.888;8.998;2024-02-26T01:05:43;12.60;53.10
19403;DHT22;9837;48.888;8.998;2024-02-26T01:08:09;12.70;52.90
19403;DHT22;9837;48.888;8.998;2024-02-26T01:10:34;12.70;53.40
19403;DHT22;9837;48.888;8.998;2024-02-26T01:13:00;12.80;53.60
19403;DHT22;9837;48.888;8.998;2024-02-26T01:15:26;12.70;54.70
19403;DHT22;9837;48.888;8.998;2024-02-26T01:17:52;12.60;56.70
19403;DHT22;9837;48.888;8.998;2024-02-26T01:22:44;12.50;57.00
19403;DHT22;9837;48.888;8.998;2024-02-26T01:25:09;12.40;57.40
19403;DHT22;9837;48.888;8.998;2024-02-26T01:27:38;12.30;57.30
19403;DHT22;9837;48.888;8.998;2024-02-26T01:30:06;12.30;57.60
19403;DHT22;9837;48.888;8.998;2024-02-26T01:34:58;12.10;57.10
19403;DHT22;9837;48.888;8.998;2024-02-26T01:37:24;11.30;58.60
19403;DHT22;9837;48.888;8.998;2024-02-26T01:39:49;11.30;59.20
19403;DHT22;9837;48.888;8.998;2024-02-26T01:42:15;11.20;59.90
19403;DHT22;9837;48.888;8.998;2024-02-26T01:44:40;11.20;60.50
19403;DHT22;9837;48.888;8.998;2024-02-26T01:47:10;11.40;60.20
19403;DHT22;9837;48.888;8.998;2024-02-26T01:49:36;11.50;60.10
19403;DHT22;9837;48.888;8.998;2024-02-26T01:52:03;11.40;60.60
19403;DHT22;9837;48.888;8.998;2024-02-26T01:54:29;11.40;59.80
19403;DHT22;9837;48.888;8.998;2024-02-26T01:56:56;11.30;59.40
19403;DHT22;9837;48.888;8.998;2024-02-26T01:59:22;11.10;60.00
19403;DHT22;9837;48.888;8.998;2024-02-26T02:01:52;11.10;60.80
19403;DHT22;9837;48.888;8.998;2024-02-26T02:04:19;11.10;61.50
19403;DHT22;9837;48.888;8.998;2024-02-26T02:06:45;11.40;60.20
19403;DHT22;9837;48.888;8.998;2024-02-26T02:09:11;11.40;61.10
19403;DHT22;9837;48.888;8.998;2024-02-26T02:11:37;11.40;61.10
19403;DHT22;9837;48.888;8.998;2024-02-26T02:14:03;11.60;59.50
19403;DHT22;9837;48.888;8.998;2024-02-26T02:16:29;11.70;59.10
19403;DHT22;9837;48.888;8.998;2024-02-26T02:18:54;11.70;59.30
19403;DHT22;9837;48.888;8.998;2024-02-26T02:21:20;11.80;59.40
19403;DHT22;9837;48.888;8.998;2024-02-26T02:26:13;12.00;58.70
19403;DHT22;9837;48.888;8.998;2024-02-26T02:28:39;11.90;58.90
19403;DHT22;9837;48.888;8.998;2024-02-26T02:31:05;11.90;58.60
19403;DHT22;9837;48.888;8.998;2024-02-26T02:33:31;11.80;58.10
19403;DHT22;9837;48.888;8.998;2024-02-26T02:38:24;11.80;58.50
19403;DHT22;9837;48.888;8.998;2024-02-26T02:40:51;11.90;57.80
19403;DHT22;9837;48.888;8.998;2024-02-26T02:43:17;12.00;57.50
19403;DHT22;9837;48.888;8.998;2024-02-26T02:45:42;12.00;57.30
19403;DHT22;9837;48.888;8.998;2024-02-26T02:48:08;11.70;57.40
19403;DHT22;9837;48.888;8.998;2024-02-26T02:50:33;11.70;58.80
19403;DHT22;9837;48.888;8.998;2024-02-26T02:52:59;11.70;59.30
19403;DHT22;9837;48.888;8.998;2024-02-26T02:57:50;11.60;59.40
19403;DHT22;9837;48.888;8.998;2024-02-26T03:00:16;11.60;60.00
19403;DHT22;9837;48.888;8.998;2024-02-26T03:02:42;10.90;61.70
19403;DHT22;9837;48.888;8.998;2024-02-26T03:05:08;11.00;61.60
19403;DHT22;9837;48.888;8.998;2024-02-26T03:07:34;10.90;62.20
19403;DHT22;9837;48.888;8.998;2024-02-26T03:12:25;11.50;61.60
19403;DHT22;9837;48.888;8.998;2024-02-26T03:14:51;11.90;60.80
19403;DHT22;9837;48.888;8.998;2024-02-26T03:17:17;12.10;59.70
19403;DHT22;9837;48.888;8.998;2024-02-26T03:19:44;12.30;59.10
19403;DHT22;9837;48.888;8.998;2024-02-26T03:22:12;12.50;59.40
19403;DHT22;9837;48.888;8.998;2024-02-26T03:24:38;12.60;59.00
19403;DHT22;9837;48.888;8.998;2024-02-26T03:27:03;12.60;58.40
19403;DHT22;9837;48.888;8.998;2024-02-26T03:29:37;12.50;57.60
19403;DHT22;9837;48.888;8.998;2024-02-26T03:32:03;12.40;58.10
19403;DHT22;9837;48.888;8.998;2024-02-26T03:36:56;12.40;58.00
19403;DHT22;9837;48.888;8.998;2024-02-26T03:39:21;12.40;58.10
19403;DHT22;9837;48.888;8.998;2024-02-26T03:41:48;12.40;58.60
19403;DHT22;9837;48.888;8.998;2024-02-26T03:44:13;12.60;57.70
19403;DHT22;9837;48.888;8.998;2024-02-26T03:46:39;12.60;57.40
19403;DHT22;9837;48.888;8.998;2024-02-26T03:49:04;12.50;57.40
19403;DHT22;9837;48.888;8.998;2024-02-26T03:51:30;12.50;57.50
19403;DHT22;9837;48.888;8.998;2024-02-26T03:53:57;12.50;58.00
19403;DHT22;9837;48.888;8.998;2024-02-26T03:56:24;12.50;57.60
19403;DHT22;9837;48.888;8.998;2024-02-26T03:58:49;12.50;57.60
19403;DHT22;9837;48.888;8.998;2024-02-26T04:01:15;12.60;58.10
19403;DHT22;9837;48.888;8.998;2024-02-26T04:03:41;12.30;57.40
19403;DHT22;9837;48.888;8.998;2024-02-26T04:06:09;12.10;57.90
19403;DHT22;9837;48.888;8.998;2024-02-26T04:08:36;11.90;58.30
19403;DHT22;9837;48.888;8.998;2024-02-26T04:11:01;12.10;58.30
19403;DHT22;9837;48.888;8.998;2024-02-26T04:13:32;12.20;57.80
19403;DHT22;9837;48.888;8.998;2024-02-26T04:15:57;12.30;57.40
19403;DHT22;9837;48.888;8.998;2024-02-26T04:18:23;12.60;57.10
19403;DHT22;9837;48.888;8.998;2024-02-26T04:20:48;12.70;57.00
19403;DHT22;9837;48.888;8.998;2024-02-26T04:25:40;12.90;56.90
19403;DHT22;9837;48.888;8.998;2024-02-26T04:28:05;12.80;57.30
19403;DHT22;9837;48.888;8.998;2024-02-26T04:30:31;12.60;57.90
19403;DHT22;9837;48.888;8.998;2024-02-26T04:32:56;12.50;58.20
19403;DHT22;9837;48.888;8.998;2024-02-26T04:35:22;12.40;58.60
19403;DHT22;9837;48.888;8.998;2024-02-26T04:40:13;12.10;59.40
19403;DHT22;9837;48.888;8.998;2024-02-26T04:42:39;11.80;60.00
19403;DHT22;9837;48.888;8.998;2024-02-26T04:45:05;11.60;61.20
19403;DHT22;9837;48.888;8.998;2024-02-26T04:47:32;11.40;62.40
19403;DHT22;9837;48.888;8.998;2024-02-26T04:49:57;11.50;62.60
19403;DHT22;9837;48.888;8.998;2024-02-26T04:52:23;11.30;63.20
19403;DHT22;9837;48.888;8.998;2024-02-26T04:54:48;11.20;63.40
19403;DHT22;9837;48.888;8.998;2024-02-26T04:57:14;11.20;63.70
19403;DHT22;9837;48.888;8.998;2024-02-26T04:59:39;11.20;64.50
19403;DHT22;9837;48.888;8.998;2024-02-26T05:02:06;11.10;64.60
19403;DHT22;9837;48.888;8.998;2024-02-26T05:04:31;11.00;65.10
19403;DHT22;9837;48.888;8.998;2024-02-26T05:06:57;10.90;65.10
19403;DHT22;9837;48.888;8.998;2024-02-26T05:09:22;10.80;65.30
19403;DHT22;9837;48.888;8.998;2024-02-26T05:11:48;10.80;64.90
19403;DHT22;9837;48.888;8.998;2024-02-26T05:14:14;11.00;63.60
19403;DHT22;9837;48.888;8.998;2024-02-26T05:16:39;10.90;62.30
19403;DHT22;9837;48.888;8.998;2024-02-26T05:19:05;11.10;61.70
19403;DHT22;9837;48.888;8.998;2024-02-26T05:21:31;11.30;61.10
19403;DHT22;9837;48.888;8.998;2024-02-26T05:23:56;11.40;60.50
19403;DHT22;9837;48.888;8.998;2024-02-26T05:26:22;11.50;60.00
19403;DHT22;9837;48.888;8.998;2024-02-26T05:28:48;11.60;59.90
19403;DHT22;9837;48.888;8.998;2024-02-26T05:31:14;11.70;59.60
19403;DHT22;9837;48.888;8.998;2024-02-26T05:33:40;11.70;59.70
19403;DHT22;9837;48.888;8.998;2024-02-26T05:36:06;11.70;60.20
19403;DHT22;9837;48.888;8.998;2024-02-26T05:38:31;11.50;60.90
19403;DHT22;9837;48.888;8.998;2024-02-26T05:40:58;11.40;60.90
19403;DHT22;9837;48.888;8.998;2024-02-26T05:43:24;11.40;61.10
19403;DHT22;9837;48.888;8.998;2024-02-26T05:45:50;11.50;60.50
19403;DHT22;9837;48.888;8.998;2024-02-26T05:48:15;11.60;59.70
19403;DHT22;9837;48.888;8.998;2024-02-26T05:50:41;11.50;59.40
19403;DHT22;9837;48.888;8.998;2024-02-26T05:53:06;11.60;59.40
19403;DHT22;9837;48.888;8.998;2024-02-26T05:55:32;11.60;60.00
19403;DHT22;9837;48.888;8.998;2024-02-26T05:57:57;11.60;60.20
19403;DHT22;9837;48.888;8.998;2024-02-26T06:00:23;11.60;60.20
19403;DHT22;9837;48.888;8.998;2024-02-26T06:02:48;11.60;60.50
19403;DHT22;9837;48.888;8.998;2024-02-26T06:05:14;11.70;60.60
19403;DHT22;9837;48.888;8.998;2024-02-26T06:07:39;11.60;60.20
19403;DHT22;9837;48.888;8.998;2024-02-26T06:10:05;11.40;60.90
19403;DHT22;9837;48.888;8.998;2024-02-26T06:12:31;11.40;61.80
19403;DHT22;9837;48.888;8.998;2024-02-26T06:14:56;11.40;62.60
19403;DHT22;9837;48.888;8.998;2024-02-26T06:17:22;11.30;62.80
19403;DHT22;9837;48.888;8.998;2024-02-26T06:19:48;11.30;63.10
19403;DHT22;9837;48.888;8.998;2024-02-26T06:22:13;11.40;62.90
19403;DHT22;9837;48.888;8.998;2024-02-26T06:24:39;11.30;62.80
19403;DHT22;9837;48.888;8.998;2024-02-26T06:27:05;11.30;63.50
19403;DHT22;9837;48.888;8.998;2024-02-26T06:29:30;11.30;63.10
19403;DHT22;9837;48.888;8.998;2024-02-26T06:31:59;11.40;63.10
19403;DHT22;9837;48.888;8.998;2024-02-26T06:34:24;11.40;64.00
19403;DHT22;9837;48.888;8.998;2024-02-26T06:36:50;11.20;63.10
19403;DHT22;9837;48.888;8.998;2024-02-26T06:39:15;11.10;63.70
19403;DHT22;9837;48.888;8.998;2024-02-26T06:41:41;11.20;63.50
19403;DHT22;9837;48.888;8.998;2024-02-26T06:44:07;11.20;64.20
19403;DHT22;9837;48.888;8.998;2024-02-26T06:46:32;11.50;62.80
19403;DHT22;9837;48.888;8.998;2024-02-26T06:48:58;11.30;62.80
19403;DHT22;9837;48.888;8.998;2024-02-26T06:51:23;11.40;63.50
19403;DHT22;9837;48.888;8.998;2024-02-26T06:53:49;11.30;63.20
19403;DHT22;9837;48.888;8.998;2024-02-26T06:56:15;11.30;63.90
19403;DHT22;9837;48.888;8.998;2024-02-26T06:58:40;11.60;62.00
19403;DHT22;9837;48.888;8.998;2024-02-26T07:01:05;11.60;61.30
19403;DHT22;9837;48.888;8.998;2024-02-26T07:03:33;11.80;61.60
19403;DHT22;9837;48.888;8.998;2024-02-26T07:05:59;11.80;60.80
19403;DHT22;9837;48.888;8.998;2024-02-26T07:08:24;11.90;60.70
19403;DHT22;9837;48.888;8.998;2024-02-26T07:10:50;12.00;60.40
19403;DHT22;9837;48.888;8.998;2024-02-26T07:13:15;12.00;61.10
19403;DHT22;9837;48.888;8.998;2024-02-26T07:15:41;12.00;61.10
19403;DHT22;9837;48.888;8.998;2024-02-26T07:18:06;12.10;61.00
19403;DHT22;9837;48.888;8.998;2024-02-26T07:22:58;12.30;60.90
19403;DHT22;9837;48.888;8.998;2024-02-26T07:25:23;12.20;60.90
19403;DHT22;9837;48.888;8.998;2024-02-26T07:27:50;12.20;61.20
19403;DHT22;9837;48.888;8.998;2024-02-26T07:30:15;12.30;61.20
19403;DHT22;9837;48.888;8.998;2024-02-26T07:32:42;12.40;61.10
19403;DHT22;9837;48.888;8.998;2024-02-26T07:35:08;12.40;61.20
19403;DHT22;9837;48.888;8.998;2024-02-26T07:37:33;12.40;61.30
19403;DHT22;9837;48.888;8.998;2024-02-26T07:39:59;12.50;61.40
19403;DHT22;9837;48.888;8.998;2024-02-26T07:42:25;12.50;61.40
19403;DHT22;9837;48.888;8.998;2024-02-26T07:44:51;12.50;62.10
19403;DHT22;9837;48.888;8.998;2024-02-26T07:47:16;12.40;61.70
19403;DHT22;9837;48.888;8.998;2024-02-26T07:49:42;12.20;61.70
19403;DHT22;9837;48.888;8.998;2024-02-26T07:52:07;12.30;61.90
19403;DHT22;9837;48.888;8.998;2024-02-26T07:54:33;12.30;62.60
19403;DHT22;9837;48.888;8.998;2024-02-26T07:56:58;12.40;61.60
19403;DHT22;9837;48.888;8.998;2024-02-26T07:59:24;12.40;61.50
19403;DHT22;9837;48.888;8.998;2024-02-26T08:01:50;12.30;62.20
19403;DHT22;9837;48.888;8.998;2024-02-26T08:04:16;12.20;62.60
19403;DHT22;9837;48.888;8.998;2024-02-26T08:06:42;12.00;63.10
19403;DHT22;9837;48.888;8.998;2024-02-26T08:09:08;12.10;63.90
19403;DHT22;9837;48.888;8.998;2024-02-26T08:11:34;11.80;64.90
19403;DHT22;9837;48.888;8.998;2024-02-26T08:13:59;11.60;65.90
19403;DHT22;9837;48.888;8.998;2024-02-26T08:16:25;11.20;66.80
19403;DHT22;9837;48.888;8.998;2024-02-26T08:18:50;11.20;67.50
19403;DHT22;9837;48.888;8.998;2024-02-26T08:21:16;11.00;66.90
19403;DHT22;9837;48.888;8.998;2024-02-26T08:23:43;11.00;67.00
19403;DHT22;9837;48.888;8.998;2024-02-26T08:28:37;11.20;67.10
19403;DHT22;9837;48.888;8.998;2024-02-26T08:31:03;11.20;67.80
19403;DHT22;9837;48.888;8.998;2024-02-26T08:33:28;11.30;67.90
19403;DHT22;9837;48.888;8.998;2024-02-26T08:35:54;11.30;68.50
19403;DHT22;9837;48.888;8.998;2024-02-26T08:38:20;11.40;69.10
19403;DHT22;9837;48.888;8.998;2024-02-26T08:40:45;11.60;68.40
19403;DHT22;9837;48.888;8.998;2024-02-26T08:43:10;11.60;69.10
19403;DHT22;9837;48.888;8.998;2024-02-26T08:45:36;11.40;69.60
19403;DHT22;9837;48.888;8.998;2024-02-26T08:48:02;11.40;69.70
19403;DHT22;9837;48.888;8.998;2024-02-26T08:50:28;12.50;71.10
19403;DHT22;9837;48.888;8.998;2024-02-26T08:52:53;11.60;70.10
19403;DHT22;9837;48.888;8.998;2024-02-26T08:55:19;11.70;69.90
19403;DHT22;9837;48.888;8.998;2024-02-26T08:57:44;12.10;68.20
19403;DHT22;9837;48.888;8.998;2024-02-26T09:00:10;12.00;68.80
19403;DHT22;9837;48.888;8.998;2024-02-26T09:02:36;12.10;67.70
19403;DHT22;9837;48.888;8.998;2024-02-26T09:05:04;12.10;68.30
19403;DHT22;9837;48.888;8.998;2024-02-26T09:07:31;12.10;66.70
19403;DHT22;9837;48.888;8.998;2024-02-26T09:09:56;12.20;66.00
19403;DHT22;9837;48.888;8.998;2024-02-26T09:12:22;12.10;65.70
19403;DHT22;9837;48.888;8.998;2024-02-26T09:14:48;12.00;66.40
19403;DHT22;9837;48.888;8.998;2024-02-26T09:17:13;12.00;67.30
19403;DHT22;9837;48.888;8.998;2024-02-26T09:19:38;12.00;68.00
19403;DHT22;9837;48.888;8.998;2024-02-26T09:24:30;11.80;68.30
19403;DHT22;9837;48.888;8.998;2024-02-26T09:26:55;12.10;68.80
19403;DHT22;9837;48.888;8.998;2024-02-26T09:29:21;12.30;67.70
19403;DHT22;9837;48.888;8.998;2024-02-26T09:31:47;12.40;68.20
19403;DHT22;9837;48.888;8.998;2024-02-26T09:34:13;12.50;67.10
19403;DHT22;9837;48.888;8.998;2024-02-26T09:36:39;12.50;67.50
19403;DHT22;9837;48.888;8.998;2024-02-26T09:39:04;12.50;68.20
19403;DHT22;9837;48.888;8.998;2024-02-26T09:41:30;12.50;68.60
19403;DHT22;9837;48.888;8.998;2024-02-26T09:43:57;12.60;68.50
19403;DHT22;9837;48.888;8.998;2024-02-26T09:46:25;12.80;66.20
19403;DHT22;9837;48.888;8.998;2024-02-26T09:48:51;12.90;65.60
19403;DHT22;9837;48.888;8.998;2024-02-26T09:51:17;12.80;66.30
19403;DHT22;9837;48.888;8.998;2024-02-26T09:53:44;12.80;66.30
19403;DHT22;9837;48.888;8.998;2024-02-26T09:56:11;12.60;65.90
19403;DHT22;9837;48.888;8.998;2024-02-26T09:58:39;12.60;66.20
19403;DHT22;9837;48.888;8.998;2024-02-26T10:01:10;12.60;66.80
19403;DHT22;9837;48.888;8.998;2024-02-26T10:03:41;12.70;64.60
19403;DHT22;9837;48.888;8.998;2024-02-26T10:06:10;12.70;65.30
19403;DHT22;9837;48.888;8.998;2024-02-26T10:08:36;13.40;64.10
19403;DHT22;9837;48.888;8.998;2024-02-26T10:11:03;13.40;64.60
19403;DHT22;9837;48.888;8.998;2024-02-26T10:13:29;13.70;63.80
19403;DHT22;9837;48.888;8.998;2024-02-26T10:15:54;14.00;62.00
19403;DHT22;9837;48.888;8.998;2024-02-26T10:18:20;14.10;60.90
19403;DHT22;9837;48.888;8.998;2024-02-26T10:21:05;13.80;61.40
19403;DHT22;9837;48.888;8.998;2024-02-26T10:23:32;13.50;62.20
19403;DHT22;9837;48.888;8.998;2024-02-26T10:25:58;13.40;62.40
19403;DHT22;9837;48.888;8.998;2024-02-26T10:28:23;13.50;61.50
19403;DHT22;9837;48.888;8.998;2024-02-26T10:30:51;13.30;63.00
19403;DHT22;9837;48.888;8.998;2024-02-26T10:33:16;13.30;63.90
19403;DHT22;9837;48.888;8.998;2024-02-26T10:35:46;13.30;64.60
19403;DHT22;9837;48.888;8.998;2024-02-26T10:38:12;13.30;63.30
19403;DHT22;9837;48.888;8.998;2024-02-26T10:40:37;13.40;63.60
19403;DHT22;9837;48.888;8.998;2024-02-26T10:43:03;13.30;64.30
19403;DHT22;9837;48.888;8.998;2024-02-26T10:45:29;13.60;62.60
19403;DHT22;9837;48.888;8.998;2024-02-26T10:47:54;13.80;61.40
19403;DHT22;9837;48.888;8.998;2024-02-26T10:50:20;14.30;56.50
19403;DHT22;9837;48.888;8.998;2024-02-26T10:52:45;14.30;57.80
19403;DHT22;9837;48.888;8.998;2024-02-26T10:55:16;14.40;58.00
19403;DHT22;9837;48.888;8.998;2024-02-26T10:57:45;14.50;57.20
19403;DHT22;9837;48.888;8.998;2024-02-26T11:00:14;14.50;57.80
19403;DHT22;9837;48.888;8.998;2024-02-26T11:02:40;14.50;57.80
19403;DHT22;9837;48.888;8.998;2024-02-26T11:05:07;14.60;57.40
19403;DHT22;9837;48.888;8.998;2024-02-26T11:07:36;14.60;57.70
19403;DHT22;9837;48.888;8.998;2024-02-26T11:10:03;14.70;56.80
19403;DHT22;9837;48.888;8.998;2024-02-26T11:12:31;14.60;57.60
19403;DHT22;9837;48.888;8.998;2024-02-26T11:14:57;14.80;57.60
19403;DHT22;9837;48.888;8.998;2024-02-26T11:17:27;14.90;57.70
19403;DHT22;9837;48.888;8.998;2024-02-26T11:19:56;15.00;56.90
19403;DHT22;9837;48.888;8.998;2024-02-26T11:22:26;15.10;56.40
19403;DHT22;9837;48.888;8.998;2024-02-26T11:24:53;15.10;56.70
19403;DHT22;9837;48.888;8.998;2024-02-26T11:27:22;15.10;57.30
19403;DHT22;9837;48.888;8.998;2024-02-26T11:29:50;15.30;55.10
19403;DHT22;9837;48.888;8.998;2024-02-26T11:32:17;15.30;55.40
19403;DHT22;9837;48.888;8.998;2024-02-26T11:34:44;15.30;55.90
19403;DHT22;9837;48.888;8.998;2024-02-26T11:37:11;15.10;56.50
19403;DHT22;9837;48.888;8.998;2024-02-26T11:39:39;15.10;55.10
19403;DHT22;9837;48.888;8.998;2024-02-26T11:42:08;15.00;56.30
19403;DHT22;9837;48.888;8.998;2024-02-26T11:44:34;15.10;56.90
19403;DHT22;9837;48.888;8.998;2024-02-26T11:47:10;14.70;57.70
19403;DHT22;9837;48.888;8.998;2024-02-26T11:49:36;14.70;57.90
19403;DHT22;9837;48.888;8.998;2024-02-26T11:52:06;14.80;57.70
19403;DHT22;9837;48.888;8.998;2024-02-26T11:57:29;15.50;56.90
19403;DHT22;9837;48.888;8.998;2024-02-26T12:00:02;15.60;56.00
19403;DHT22;9837;48.888;8.998;2024-02-26T12:05:16;16.10;55.30
19403;DHT22;9837;48.888;8.998;2024-02-26T12:07:47;15.90;54.10
19403;DHT22;9837;48.888;8.998;2024-02-26T12:12:41;15.60;54.00
19403;DHT22;9837;48.888;8.998;2024-02-26T12:15:08;15.40;54.30
19403;DHT22;9837;48.888;8.998;2024-02-26T12:17:34;15.40;55.40
19403;DHT22;9837;48.888;8.998;2024-02-26T12:20:11;15.30;55.90
19403;DHT22;9837;48.888;8.998;2024-02-26T12:22:39;15.70;55.50
19403;DHT22;9837;48.888;8.998;2024-02-26T12:25:08;16.20;53.60
19403;DHT22;9837;48.888;8.998;2024-02-26T12:27:34;16.10;54.00
19403;DHT22;9837;48.888;8.998;2024-02-26T12:30:01;16.20;53.00
19403;DHT22;9837;48.888;8.998;2024-02-26T12:32:26;16.30;52.60
19403;DHT22;9837;48.888;8.998;2024-02-26T12:34:52;16.00;51.40
19403;DHT22;9837;48.888;8.998;2024-02-26T12:37:17;16.00;52.10
19403;DHT22;9837;48.888;8.998;2024-02-26T12:39:43;16.00;52.10
19403;DHT22;9837;48.888;8.998;2024-02-26T12:42:09;16.00;50.60
19403;DHT22;9837;48.888;8.998;2024-02-26T12:44:35;16.00;51.20
19403;DHT22;9837;48.888;8.998;2024-02-26T12:47:01;16.10;52.20
19403;DHT22;9837;48.888;8.998;2024-02-26T12:49:28;16.10;52.10
19403;DHT22;9837;48.888;8.998;2024-02-26T12:51:53;15.90;51.90
19403;DHT22;9837;48.888;8.998;2024-02-26T12:54:20;16.00;52.50
19403;DHT22;9837;48.888;8.998;2024-02-26T12:56:46;16.10;51.10
19403;DHT22;9837;48.888;8.998;2024-02-26T12:59:12;18.70;52.90
19403;DHT22;9837;48.888;8.998;2024-02-26T13:01:38;16.10;51.70
19403;DHT22;9837;48.888;8.998;2024-02-26T13:04:04;16.00;50.30
19403;DHT22;9837;48.888;8.998;2024-02-26T13:06:32;16.10;51.10
19403;DHT22;9837;48.888;8.998;2024-02-26T13:11:25;16.30;51.90
19403;DHT22;9837;48.888;8.998;2024-02-26T13:13:51;16.30;52.60
19403;DHT22;9837;48.888;8.998;2024-02-26T13:16:16;16.50;51.50
19403;DHT22;9837;48.888;8.998;2024-02-26T13:18:42;16.80;50.10
19403;DHT22;9837;48.888;8.998;2024-02-26T13:21:12;16.90;50.70
19403;DHT22;9837;48.888;8.998;2024-02-26T13:23:42;17.20;49.60
19403;DHT22;9837;48.888;8.998;2024-02-26T13:26:08;17.10;49.20
19403;DHT22;9837;48.888;8.998;2024-02-26T13:28:37;16.90;50.30
19403;DHT22;9837;48.888;8.998;2024-02-26T13:31:02;17.00;49.40
19403;DHT22;9837;48.888;8.998;2024-02-26T13:33:30;17.10;50.10
19403;DHT22;9837;48.888;8.998;2024-02-26T13:35:56;17.10;49.80
19403;DHT22;9837;48.888;8.998;2024-02-26T13:38:22;17.20;49.40
19403;DHT22;9837;48.888;8.998;2024-02-26T13:40:49;17.20;50.00
19403;DHT22;9837;48.888;8.998;2024-02-26T13:43:14;17.20;49.50
19403;DHT22;9837;48.888;8.998;2024-02-26T13:45:40;17.60;50.10
19403;DHT22;9837;48.888;8.998;2024-02-26T13:48:08;17.60;49.20
19403;DHT22;9837;48.888;8.998;2024-02-26T13:50:37;17.50;49.70
19403;DHT22;9837;48.888;8.998;2024-02-26T13:53:03;17.30;50.20
19403;DHT22;9837;48.888;8.998;2024-02-26T13:55:30;17.10;50.00
19403;DHT22;9837;48.888;8.998;2024-02-26T13:57:58;17.00;50.50
19403;DHT22;9837;48.888;8.998;2024-02-26T14:00:24;16.90;51.00
19403;DHT22;9837;48.888;8.998;2024-02-26T14:02:50;16.70;50.90
19403;DHT22;9837;48.888;8.998;2024-02-26T14:05:16;17.00;50.40
19403;DHT22;9837;48.888;8.998;2024-02-26T14:07:42;17.20;49.80
19403;DHT22;9837;48.888;8.998;2024-02-26T14:10:09;17.40;49.50
19403;DHT22;9837;48.888;8.998;2024-02-26T14:12:37;17.40;50.00
19403;DHT22;9837;48.888;8.998;2024-02-26T14:15:03;17.50;50.20
19403;DHT22;9837;48.888;8.998;2024-02-26T14:17:30;17.80;48.80
19403;DHT22;9837;48.888;8.998;2024-02-26T14:19:56;17.90;49.10
19403;DHT22;9837;48.888;8.998;2024-02-26T14:22:21;17.90;49.70
19403;DHT22;9837;48.888;8.998;2024-02-26T14:24:47;17.80;49.50
19403;DHT22;9837;48.888;8.998;2024-02-26T14:27:13;17.70;48.80
19403;DHT22;9837;48.888;8.998;2024-02-26T14:29:43;17.80;48.10
19403;DHT22;9837;48.888;8.998;2024-02-26T14:32:12;17.90;48.80
19403;DHT22;9837;48.888;8.998;2024-02-26T14:34:38;17.90;49.40
19403;DHT22;9837;48.888;8.998;2024-02-26T14:37:04;17.90;49.30
19403;DHT22;9837;48.888;8.998;2024-02-26T14:39:32;17.70;49.70
19403;DHT22;9837;48.888;8.998;2024-02-26T14:44:24;17.40;50.10
19403;DHT22;9837;48.888;8.998;2024-02-26T14:46:50;17.40;50.70
19403;DHT22;9837;48.888;8.998;2024-02-26T14:49:16;17.60;50.20
19403;DHT22;9837;48.888;8.998;2024-02-26T14:51:42;17.60;49.50
19403;DHT22;9837;48.888;8.998;2024-02-26T14:54:11;17.40;50.00
19403;DHT22;9837;48.888;8.998;2024-02-26T14:56:36;17.20;50.00
19403;DHT22;9837;48.888;8.998;2024-02-26T14:59:02;17.10;50.50
19403;DHT22;9837;48.888;8.998;2024-02-26T15:01:28;17.30;50.50
19403;DHT22;9837;48.888;8.998;2024-02-26T15:03:53;17.40;50.40
19403;DHT22;9837;48.888;8.998;2024-02-26T15:06:19;17.50;50.20
19403;DHT22;9837;48.888;8.998;2024-02-26T15:08:44;17.60;49.60
19403;DHT22;9837;48.888;8.998;2024-02-26T15:11:10;17.40;49.80
19403;DHT22;9837;48.888;8.998;2024-02-26T15:13:36;17.00;50.30
19403;DHT22;9837;48.888;8.998;2024-02-26T15:16:01;17.10;50.70
19403;DHT22;9837;48.888;8.998;2024-02-26T15:18:27;17.30;49.90
19403;DHT22;9837;48.888;8.998;2024-02-26T15:20:52;17.40;50.00
19403;DHT22;9837;48.888;8.998;2024-02-26T15:23:18;17.30;49.80
19403;DHT22;9837;48.888;8.998;2024-02-26T15:25:44;17.30;50.10
19403;DHT22;9837;48.888;8.998;2024-02-26T15:28:09;17.40;49.90
19403;DHT22;9837;48.888;8.998;2024-02-26T15:30:40;17.50;49.80
19403;DHT22;9837;48.888;8.998;2024-02-26T15:33:06;17.50;50.30
19403;DHT22;9837;48.888;8.998;2024-02-26T15:35:31;17.30;49.60
19403;DHT22;9837;48.888;8.998;2024-02-26T15:37:57;17.30;50.00
19403;DHT22;9837;48.888;8.998;2024-02-26T15:40:23;17.30;50.60
19403;DHT22;9837;48.888;8.998;2024-02-26T15:42:49;17.10;50.50
19403;DHT22;9837;48.888;8.998;2024-02-26T15:45:15;17.00;50.40
19403;DHT22;9837;48.888;8.998;2024-02-26T15:47:41;16.90;50.40
19403;DHT22;9837;48.888;8.998;2024-02-26T15:50:08;16.80;50.50
19403;DHT22;9837;48.888;8.998;2024-02-26T15:52:36;16.80;51.10
19403;DHT22;9837;48.888;8.998;2024-02-26T15:55:01;16.90;51.20
19403;DHT22;9837;48.888;8.998;2024-02-26T15:57:27;16.60;51.40
19403;DHT22;9837;48.888;8.998;2024-02-26T15:59:53;16.60;51.30
19403;DHT22;9837;48.888;8.998;2024-02-26T16:02:19;16.60;51.90
19403;DHT22;9837;48.888;8.998;2024-02-26T16:04:46;16.90;51.50
19403;DHT22;9837;48.888;8.998;2024-02-26T16:07:31;16.90;51.30
19403;DHT22;9837;48.888;8.998;2024-02-26T16:09:58;16.90;51.40
19403;DHT22;9837;48.888;8.998;2024-02-26T16:12:46;16.90;51.40
19403;DHT22;9837;48.888;8.998;2024-02-26T16:15:14;16.90;51.80
19403;DHT22;9837;48.888;8.998;2024-02-26T16:17:42;16.80;52.10
19403;DHT22;9837;48.888;8.998;2024-02-26T16:20:12;16.80;52.60
19403;DHT22;9837;48.888;8.998;2024-02-26T16:22:38;16.70;52.90
19403;DHT22;9837;48.888;8.998;2024-02-26T16:25:06;16.70;53.20